Time;durP1;ratioP1;P1;durP2;ratioP2;P2;SDS_P1;SDS_P2;PMS_P1;PMS_P2;Temp;Humidity;BMP_temperature;BMP_pressure;BME280_temperature;BME280_humidity;BME280_pressure;Samples;Min_cycle;Max_cycle;Signal;HPM_P1;HPM_P2
2021/12/09 00:02:19;;;;;;;21.00;9.07;;;3.80;99.90;;;;;;5124991;27;20042;-66
2021/12/09 00:04:45;;;;;;;14.55;8.18;;;3.80;99.90;;;;;;5132371;27;20047;-66
2021/12/09 00:07:11;;;;;;;14.73;8.85;;;3.90;99.90;;;;;;5129242;27;20043;-66
2021/12/09 00:09:37;;;;;;;12.57;8.52;;;3.80;99.90;;;;;;5132801;27;20061;-66
2021/12/09 00:12:03;;;;;;;16.02;7.30;;;3.80;99.90;;;;;;5132153;27;20095;-66
2021/12/09 00:14:32;;;;;;;13.13;7.15;;;3.80;99.90;;;;;;5123161;27;20043;-66
2021/12/09 00:17:02;;;;;;;16.15;7.88;;;3.80;99.90;;;;;;5153062;27;20105;-66
2021/12/09 00:19:27;;;;;;;13.77;8.18;;;3.70;99.90;;;;;;5145339;27;20073;-66
2021/12/09 00:21:53;;;;;;;14.70;7.55;;;3.70;99.90;;;;;;5113717;27;20070;-66
2021/12/09 00:24:19;;;;;;;17.60;7.78;;;3.70;99.90;;;;;;5142458;27;20043;-66
2021/12/09 00:26:45;;;;;;;13.52;7.15;;;3.70;99.90;;;;;;5152451;27;20046;-67
2021/12/09 00:29:14;;;;;;;14.93;7.10;;;3.70;99.90;;;;;;5124611;27;20411;-66
2021/12/09 00:31:39;;;;;;;15.55;6.90;;;3.60;99.90;;;;;;5142521;27;20062;-66
2021/12/09 00:34:05;;;;;;;15.02;9.10;;;3.70;99.90;;;;;;5131978;27;20054;-66
2021/12/09 00:36:38;;;;;;;14.43;8.20;;;3.60;99.90;;;;;;5122431;27;20035;-66
2021/12/09 00:39:06;;;;;;;;;;;3.70;99.90;;;;;;5136246;27;20089;-66
2021/12/09 00:41:32;;;;;;;19.13;8.70;;;3.60;99.90;;;;;;5131872;27;19923;-66
2021/12/09 00:43:58;;;;;;;15.20;7.88;;;3.60;99.90;;;;;;5113240;27;20177;-66
2021/12/09 00:46:23;;;;;;;14.70;8.50;;;3.60;99.90;;;;;;5113148;27;20057;-66
2021/12/09 00:48:50;;;;;;;17.05;7.70;;;3.60;99.90;;;;;;5132050;27;20392;-66
2021/12/09 00:51:16;;;;;;;13.63;7.85;;;3.60;99.90;;;;;;5113871;27;20047;-66
2021/12/09 00:53:42;;;;;;;15.73;8.02;;;3.50;99.90;;;;;;5122798;27;20097;-66
2021/12/09 00:56:10;;;;;;;12.07;8.00;;;3.60;99.90;;;;;;5134322;27;20043;-66
2021/12/09 00:58:37;;;;;;;13.15;7.95;;;3.60;99.90;;;;;;5152994;27;20046;-66
2021/12/09 01:01:04;;;;;;;13.77;8.02;;;3.60;99.90;;;;;;5132196;27;20545;-66
2021/12/09 01:03:30;;;;;;;14.07;8.20;;;3.60;99.90;;;;;;5137264;27;20061;-66
2021/12/09 01:05:56;;;;;;;13.43;7.78;;;3.60;99.90;;;;;;5123581;27;20486;-66
2021/12/09 01:08:21;;;;;;;15.00;7.70;;;3.60;99.90;;;;;;5136143;27;20076;-66
2021/12/09 01:10:47;;;;;;;12.85;7.45;;;3.60;99.90;;;;;;5136495;27;20039;-66
2021/12/09 01:13:13;;;;;;;19.83;8.38;;;3.60;99.90;;;;;;5130231;27;20137;-66
2021/12/09 01:15:40;;;;;;;14.77;8.50;;;3.60;99.90;;;;;;5130714;27;20084;-66
2021/12/09 01:18:05;;;;;;;14.30;7.68;;;3.60;99.90;;;;;;5129574;27;20031;-66
2021/12/09 01:20:31;;;;;;;13.65;8.10;;;3.50;99.90;;;;;;5111821;27;20039;-66
2021/12/09 01:22:58;;;;;;;15.45;8.77;;;3.50;99.90;;;;;;5104731;27;20046;-66
2021/12/09 01:25:26;;;;;;;17.55;8.07;;;3.50;99.90;;;;;;5130908;27;20067;-66
2021/12/09 01:27:55;;;;;;;18.02;7.50;;;3.50;99.90;;;;;;5129502;27;20057;-66
2021/12/09 01:30:22;;;;;;;14.88;7.72;;;3.50;99.90;;;;;;5144551;27;20085;-66
2021/12/09 01:32:51;;;;;;;14.32;8.48;;;3.50;99.90;;;;;;5132711;27;20059;-66
2021/12/09 01:35:35;;;;;;;14.45;8.02;;;3.50;99.90;;;;;;5122334;27;20122;-66
2021/12/09 01:38:09;;;;;;;22.23;8.38;;;3.50;99.90;;;;;;5109627;27;20075;-66
2021/12/09 01:40:35;;;;;;;18.63;8.90;;;3.50;99.90;;;;;;5126918;27;20057;-66
2021/12/09 01:43:01;;;;;;;17.48;7.88;;;3.50;99.90;;;;;;5138725;27;20080;-66
2021/12/09 01:45:27;;;;;;;15.52;8.00;;;3.50;99.90;;;;;;5134056;27;20050;-66
2021/12/09 01:47:53;;;;;;;20.38;9.23;;;3.40;99.90;;;;;;5112342;27;20039;-66
2021/12/09 01:50:20;;;;;;;17.00;8.63;;;3.40;99.90;;;;;;5117062;27;20086;-66
2021/12/09 01:52:45;;;;;;;16.20;9.73;;;3.40;99.90;;;;;;5122457;27;20091;-66
2021/12/09 01:55:13;;;;;;;15.05;9.15;;;3.40;99.90;;;;;;5130854;27;20046;-65
2021/12/09 01:57:40;;;;;;;11.35;8.35;;;3.40;99.90;;;;;;5147006;27;20122;-66
2021/12/09 02:00:08;;;;;;;19.45;9.23;;;3.40;99.90;;;;;;5150040;27;20074;-66
2021/12/09 02:02:34;;;;;;;15.65;9.05;;;3.40;99.90;;;;;;5143671;27;20043;-66
2021/12/09 02:05:00;;;;;;;15.38;8.73;;;3.40;99.90;;;;;;5111514;27;20084;-66
2021/12/09 02:07:25;;;;;;;17.83;9.32;;;3.40;99.90;;;;;;5129120;27;20142;-66
2021/12/09 02:09:51;;;;;;;17.88;8.48;;;3.40;99.90;;;;;;5121244;27;20047;-66
2021/12/09 02:12:16;;;;;;;15.15;8.77;;;3.40;99.90;;;;;;5130046;27;20498;-66
2021/12/09 02:14:44;;;;;;;17.42;8.63;;;3.40;99.90;;;;;;5130700;27;20522;-66
2021/12/09 02:17:13;;;;;;;15.80;8.63;;;3.40;99.90;;;;;;5112273;27;20043;-66
2021/12/09 02:19:43;;;;;;;18.15;9.20;;;3.30;99.90;;;;;;5128397;27;20098;-66
2021/12/09 02:22:11;;;;;;;13.63;8.60;;;3.30;99.90;;;;;;5120539;27;20158;-66
2021/12/09 02:24:37;;;;;;;17.83;9.73;;;3.30;99.90;;;;;;5145787;27;20055;-66
2021/12/09 02:27:03;;;;;;;15.82;8.43;;;3.30;99.90;;;;;;5128810;27;20081;-66
2021/12/09 02:29:29;;;;;;;18.40;8.88;;;3.20;99.90;;;;;;5137532;27;20078;-66
2021/12/09 02:31:57;;;;;;;17.65;9.25;;;3.20;99.90;;;;;;5129544;27;20466;-66
2021/12/09 02:34:23;;;;;;;17.25;9.50;;;3.20;99.90;;;;;;5109980;27;20100;-66
2021/12/09 02:36:51;;;;;;;19.25;10.45;;;3.20;99.90;;;;;;5111720;28;20425;-66
2021/12/09 02:39:16;;;;;;;14.45;8.68;;;3.20;99.90;;;;;;5122249;27;20075;-66
2021/12/09 02:41:43;;;;;;;16.40;9.20;;;3.20;99.90;;;;;;5130082;27;20521;-66
2021/12/09 02:44:11;;;;;;;14.68;9.55;;;3.20;99.90;;;;;;5111487;27;20039;-66
2021/12/09 02:46:38;;;;;;;17.15;9.13;;;3.20;99.90;;;;;;5143831;27;20042;-66
2021/12/09 02:49:10;;;;;;;17.58;9.93;;;3.20;99.90;;;;;;5114262;27;20051;-66
2021/12/09 02:51:37;;;;;;;17.77;9.13;;;3.20;99.90;;;;;;5111884;28;20108;-66
2021/12/09 02:54:04;;;;;;;19.15;9.32;;;3.20;99.90;;;;;;5109549;27;20051;-66
2021/12/09 02:56:31;;;;;;;25.63;10.70;;;3.10;99.90;;;;;;5130148;28;20047;-66
2021/12/09 02:58:56;;;;;;;25.77;10.77;;;3.10;99.90;;;;;;5121881;27;20046;-66
2021/12/09 03:01:30;;;;;;;15.25;9.80;;;3.10;99.90;;;;;;5139533;27;20097;-66
2021/12/09 03:04:00;;;;;;;15.55;9.90;;;3.10;99.90;;;;;;5125291;28;20093;-66
2021/12/09 03:06:33;;;;;;;19.25;10.98;;;3.10;99.90;;;;;;5125678;27;20100;-66
2021/12/09 03:09:02;;;;;;;21.50;10.13;;;3.10;99.90;;;;;;5116380;27;20046;-66
2021/12/09 03:11:28;;;;;;;15.68;10.05;;;3.10;99.90;;;;;;5150673;27;20035;-66
2021/12/09 03:13:53;;;;;;;16.92;10.30;;;3.10;99.90;;;;;;5135697;27;20050;-67
2021/12/09 03:16:22;;;;;;;15.00;9.20;;;3.10;99.90;;;;;;5125642;27;20043;-67
2021/12/09 03:18:51;;;;;;;17.73;10.20;;;3.00;99.90;;;;;;5150427;27;20397;-66
2021/12/09 03:21:30;;;;;;;18.50;9.95;;;3.00;99.90;;;;;;5149925;27;20045;-66
2021/12/09 03:23:57;;;;;;;20.77;10.25;;;3.00;99.90;;;;;;5114510;28;20062;-66
2021/12/09 03:26:29;;;;;;;23.67;11.63;;;2.90;99.90;;;;;;5131124;27;20050;-67
2021/12/09 03:28:57;;;;;;;17.08;10.35;;;3.00;99.90;;;;;;5149419;27;20057;-66
2021/12/09 03:31:23;;;;;;;19.10;11.13;;;3.00;99.90;;;;;;5147663;27;20039;-66
2021/12/09 03:33:49;;;;;;;19.83;10.75;;;2.90;99.90;;;;;;5136314;27;20058;-66
2021/12/09 03:36:15;;;;;;;16.58;10.38;;;2.90;99.90;;;;;;5129976;27;20043;-66
2021/12/09 03:38:41;;;;;;;16.50;11.13;;;2.90;99.90;;;;;;5129347;27;20046;-66
2021/12/09 03:41:07;;;;;;;19.45;10.30;;;2.90;99.90;;;;;;5111032;28;20469;-66
2021/12/09 03:43:33;;;;;;;17.08;11.32;;;2.90;99.90;;;;;;5121374;27;20080;-66
2021/12/09 03:45:59;;;;;;;21.58;11.30;;;2.80;99.90;;;;;;5105832;28;20165;-67
2021/12/09 03:48:28;;;;;;;18.20;11.10;;;2.80;99.90;;;;;;5139644;27;20856;-66
2021/12/09 03:50:56;;;;;;;16.33;11.23;;;2.90;99.90;;;;;;5136769;27;20144;-67
2021/12/09 03:53:22;;;;;;;19.20;11.48;;;2.80;99.90;;;;;;5144508;27;20714;-67
2021/12/09 03:55:49;;;;;;;18.20;11.05;;;2.80;99.90;;;;;;5132819;27;20054;-66
2021/12/09 03:58:16;;;;;;;16.92;10.15;;;2.80;99.90;;;;;;5123408;27;20039;-66
2021/12/09 04:00:42;;;;;;;19.35;11.60;;;2.70;99.90;;;;;;5115247;27;20401;-66
2021/12/09 04:03:08;;;;;;;17.58;10.20;;;2.70;99.90;;;;;;5116891;27;20046;-67
2021/12/09 04:05:34;;;;;;;19.52;10.18;;;2.70;99.90;;;;;;5123225;27;20054;-67
2021/12/09 04:08:00;;;;;;;19.70;11.38;;;2.70;99.90;;;;;;5136131;27;20050;-67
2021/12/09 04:10:26;;;;;;;23.20;11.50;;;2.70;99.90;;;;;;5122712;27;20683;-66
2021/12/09 04:12:51;;;;;;;18.15;10.43;;;2.70;99.90;;;;;;5146942;27;20031;-67
2021/12/09 04:15:17;;;;;;;22.33;10.73;;;2.60;99.90;;;;;;5130860;27;20125;-66
2021/12/09 04:17:43;;;;;;;13.85;9.50;;;2.70;99.90;;;;;;5108520;27;20047;-67
2021/12/09 04:20:09;;;;;;;19.67;11.35;;;2.70;99.90;;;;;;5114766;27;20047;-66
2021/12/09 04:22:35;;;;;;;22.77;10.95;;;2.60;99.90;;;;;;5115120;27;20164;-66
2021/12/09 04:25:01;;;;;;;17.92;10.75;;;2.60;99.90;;;;;;5106015;27;20131;-66
2021/12/09 04:27:27;;;;;;;20.00;11.45;;;2.60;99.90;;;;;;5129634;27;20690;-67
2021/12/09 04:29:54;;;;;;;17.17;11.00;;;2.60;99.90;;;;;;5132121;27;20049;-66
2021/12/09 04:32:20;;;;;;;19.05;11.07;;;2.70;99.90;;;;;;5132161;27;20043;-66
2021/12/09 04:34:46;;;;;;;18.92;11.05;;;2.70;99.90;;;;;;5131864;27;20158;-66
2021/12/09 04:37:12;;;;;;;21.92;10.80;;;2.60;99.90;;;;;;5141663;27;20447;-67
2021/12/09 04:39:38;;;;;;;18.88;11.40;;;2.60;99.90;;;;;;5131671;27;20673;-66
2021/12/09 04:42:06;;;;;;;30.25;11.80;;;2.50;99.90;;;;;;5131917;27;20051;-67
2021/12/09 04:44:32;;;;;;;19.25;10.77;;;2.50;99.90;;;;;;5133039;27;20046;-66
2021/12/09 04:47:00;;;;;;;26.15;12.45;;;2.60;99.90;;;;;;5131189;27;20442;-67
2021/12/09 04:49:26;;;;;;;22.15;12.45;;;2.60;99.90;;;;;;5121353;27;20518;-66
2021/12/09 04:51:52;;;;;;;19.58;10.88;;;2.60;99.90;;;;;;5123506;27;20414;-67
2021/12/09 04:54:18;;;;;;;25.45;12.68;;;2.60;99.90;;;;;;5115302;27;20056;-66
2021/12/09 04:56:43;;;;;;;24.58;12.00;;;2.50;99.90;;;;;;5142812;27;20572;-66
2021/12/09 04:59:09;;;;;;;23.27;10.88;;;2.60;99.90;;;;;;5131525;27;20043;-66
2021/12/09 05:01:36;;;;;;;22.08;12.18;;;2.50;99.90;;;;;;5130852;27;20074;-66
2021/12/09 05:04:02;;;;;;;18.38;10.65;;;2.50;99.90;;;;;;5132871;27;23192;-66
2021/12/09 05:06:29;;;;;;;18.98;11.73;;;2.60;99.90;;;;;;5133988;27;20039;-66
2021/12/09 05:08:56;;;;;;;22.15;11.13;;;2.60;99.90;;;;;;5151694;27;20121;-66
2021/12/09 05:14:04;;;;;;;23.98;11.65;;;2.60;99.90;;;;;;5128752;27;20509;-66
2021/12/09 05:16:31;;;;;;;20.52;11.52;;;2.50;99.90;;;;;;5123526;27;20047;-66
2021/12/09 05:18:58;;;;;;;22.38;11.68;;;2.50;99.90;;;;;;5112901;27;20069;-67
2021/12/09 05:21:28;;;;;;;22.10;10.38;;;2.50;99.90;;;;;;5131193;27;20045;-66
2021/12/09 05:23:55;;;;;;;24.50;12.23;;;2.50;99.90;;;;;;5115629;27;20401;-66
2021/12/09 05:26:25;;;;;;;27.98;12.27;;;2.50;99.90;;;;;;5113142;27;20045;-66
2021/12/09 05:28:55;;;;;;;19.23;11.38;;;2.50;99.90;;;;;;5130533;27;20063;-66
2021/12/09 05:34:05;;;;;;;19.08;9.80;;;2.50;99.90;;;;;;5141995;27;20555;-66
2021/12/09 05:36:30;;;;;;;17.83;11.35;;;2.50;99.90;;;;;;5106526;27;20122;-66
2021/12/09 05:38:56;;;;;;;19.88;10.98;;;2.40;99.90;;;;;;5109036;28;20483;-66
2021/12/09 05:41:21;;;;;;;21.23;10.45;;;2.40;99.90;;;;;;5110365;28;20086;-67
2021/12/09 05:43:47;;;;;;;20.45;11.07;;;2.40;99.90;;;;;;5122653;27;20054;-67
2021/12/09 05:46:12;;;;;;;19.45;10.35;;;2.40;99.90;;;;;;5129611;27;20043;-66
2021/12/09 05:48:41;;;;;;;20.67;10.70;;;2.50;99.90;;;;;;5130680;27;20116;-66
2021/12/09 05:51:07;;;;;;;24.10;11.88;;;2.50;99.90;;;;;;5122533;27;20047;-66
2021/12/09 05:53:32;;;;;;;16.75;10.15;;;2.50;99.90;;;;;;5119186;27;20068;-66
2021/12/09 05:55:58;;;;;;;17.90;11.90;;;2.50;99.90;;;;;;5135010;27;20072;-66
2021/12/09 05:58:24;;;;;;;17.48;10.85;;;2.50;99.90;;;;;;5143168;27;20474;-66
2021/12/09 06:00:51;;;;;;;25.95;11.18;;;2.50;99.90;;;;;;5128804;27;20138;-67
2021/12/09 06:03:19;;;;;;;19.70;10.93;;;2.50;99.90;;;;;;5141232;27;20444;-66
2021/12/09 06:05:45;;;;;;;18.00;11.38;;;2.50;99.90;;;;;;5132736;27;20039;-67
2021/12/09 06:08:10;;;;;;;24.00;11.90;;;2.50;99.90;;;;;;5123673;27;20050;-67
2021/12/09 06:10:37;;;;;;;25.92;12.70;;;2.40;99.90;;;;;;5129242;27;20047;-66
2021/12/09 06:13:03;;;;;;;19.60;10.30;;;2.40;99.90;;;;;;5113102;27;20057;-66
2021/12/09 06:15:29;;;;;;;25.17;10.45;;;2.50;99.90;;;;;;5128575;27;20052;-66
2021/12/09 06:17:55;;;;;;;16.73;10.57;;;2.50;99.90;;;;;;5128989;27;20039;-66
2021/12/09 06:20:20;;;;;;;19.15;9.68;;;2.50;99.90;;;;;;5130132;27;20471;-67
2021/12/09 06:22:46;;;;;;;18.42;10.88;;;2.50;99.90;;;;;;5130324;27;20055;-66
2021/12/09 06:25:17;;;;;;;17.92;10.75;;;2.40;99.90;;;;;;5111000;27;20100;-66
2021/12/09 06:27:44;;;;;;;20.63;10.32;;;2.50;99.90;;;;;;5142794;27;20099;-67
2021/12/09 06:30:10;;;;;;;23.27;11.15;;;2.50;99.90;;;;;;5151060;27;20417;-66
2021/12/09 06:32:36;;;;;;;21.70;11.63;;;2.50;99.90;;;;;;5131390;27;20505;-66
2021/12/09 06:35:03;;;;;;;19.95;10.20;;;2.50;99.90;;;;;;5119828;27;20091;-66
2021/12/09 06:37:28;;;;;;;20.50;10.50;;;2.50;99.90;;;;;;5111931;27;20089;-66
2021/12/09 06:39:54;;;;;;;22.10;10.52;;;2.50;99.90;;;;;;5133382;27;20046;-66
2021/12/09 06:42:19;;;;;;;16.70;10.32;;;2.50;99.90;;;;;;5151149;27;20043;-66
2021/12/09 06:44:45;;;;;;;19.90;10.82;;;2.50;99.90;;;;;;5141012;27;20047;-66
2021/12/09 06:47:11;;;;;;;25.48;10.95;;;2.50;99.90;;;;;;5129467;27;20058;-66
2021/12/09 06:49:36;;;;;;;27.27;10.38;;;2.50;99.90;;;;;;5110512;28;20051;-65
2021/12/09 06:52:02;;;;;;;19.08;9.52;;;2.50;99.90;;;;;;5129474;27;20054;-65
2021/12/09 06:54:28;;;;;;;22.17;11.07;;;2.50;99.90;;;;;;5111114;28;20466;-65
2021/12/09 06:56:54;;;;;;;18.30;10.25;;;2.50;99.90;;;;;;5149100;27;20068;-65
2021/12/09 06:59:19;;;;;;;31.55;10.85;;;2.50;99.90;;;;;;5130104;27;20425;-65
2021/12/09 07:01:45;;;;;;;21.55;12.48;;;2.50;99.90;;;;;;5129807;28;20075;-65
2021/12/09 07:04:10;;;;;;;22.52;11.57;;;2.40;99.90;;;;;;5122724;27;20064;-66
2021/12/09 07:06:37;;;;;;;24.42;9.50;;;2.50;99.90;;;;;;5129061;27;20562;-66
2021/12/09 07:09:04;;;;;;;14.40;9.73;;;2.40;99.90;;;;;;5119729;28;20047;-66
2021/12/09 07:11:32;;;;;;;24.83;10.88;;;2.50;99.90;;;;;;5120774;27;20054;-66
2021/12/09 07:13:57;;;;;;;20.08;10.15;;;2.40;99.90;;;;;;5110069;28;20066;-66
2021/12/09 07:16:23;;;;;;;23.65;10.55;;;2.50;99.90;;;;;;5129976;28;20036;-66
2021/12/09 07:18:49;;;;;;;19.80;10.77;;;2.40;99.90;;;;;;5124307;27;20051;-66
2021/12/09 07:21:15;;;;;;;18.05;10.40;;;2.40;99.90;;;;;;5133450;27;20035;-66
2021/12/09 07:23:40;;;;;;;31.90;11.73;;;2.40;99.90;;;;;;5121456;27;20389;-66
2021/12/09 07:26:06;;;;;;;24.17;9.57;;;2.30;99.90;;;;;;5135502;27;20498;-66
2021/12/09 07:28:31;;;;;;;15.57;9.07;;;2.40;99.90;;;;;;5114573;27;20092;-66
2021/12/09 07:30:57;;;;;;;25.20;9.55;;;2.40;99.90;;;;;;5140270;27;20057;-66
2021/12/09 07:33:23;;;;;;;20.85;11.02;;;2.30;99.90;;;;;;5117828;27;20047;-66
2021/12/09 07:35:48;;;;;;;15.88;8.75;;;2.40;99.90;;;;;;5132631;27;20039;-66
2021/12/09 07:38:14;;;;;;;23.38;9.82;;;2.30;99.90;;;;;;5115270;27;20593;-66
2021/12/09 07:40:40;;;;;;;19.85;11.23;;;2.40;99.90;;;;;;5148169;27;20035;-66
2021/12/09 07:43:06;;;;;;;24.48;11.18;;;2.30;99.90;;;;;;5147422;27;20066;-66
2021/12/09 07:45:32;;;;;;;23.90;11.05;;;2.40;99.90;;;;;;5118382;27;20454;-66
2021/12/09 07:47:58;;;;;;;22.55;11.07;;;2.40;99.90;;;;;;5139706;27;20078;-66
2021/12/09 07:50:28;;;;;;;21.08;10.18;;;2.40;99.90;;;;;;5134888;27;20070;-66
2021/12/09 07:52:54;;;;;;;21.02;9.25;;;2.30;99.90;;;;;;5131211;27;20391;-66
2021/12/09 07:55:21;;;;;;;14.65;9.35;;;2.30;99.90;;;;;;5124525;27;20074;-66
2021/12/09 07:57:47;;;;;;;20.73;10.15;;;2.40;99.90;;;;;;5133507;27;20051;-66
2021/12/09 08:00:23;;;;;;;25.90;9.82;;;2.30;99.90;;;;;;5133912;27;20474;-66
2021/12/09 08:02:50;;;;;;;26.55;9.57;;;2.40;99.90;;;;;;5143512;27;20053;-66
2021/12/09 08:05:17;;;;;;;25.10;10.10;;;2.50;99.90;;;;;;5141492;27;20055;-66
2021/12/09 08:07:43;;;;;;;16.58;8.65;;;2.40;99.90;;;;;;5131118;27;20078;-66
2021/12/09 08:10:15;;;;;;;20.90;9.25;;;2.40;99.90;;;;;;5132760;27;20103;-66
2021/12/09 08:12:41;;;;;;;24.42;9.98;;;2.40;99.90;;;;;;5133397;27;20076;-66
2021/12/09 08:15:09;;;;;;;24.23;9.75;;;2.50;99.90;;;;;;5124347;27;20626;-66
2021/12/09 08:20:11;;;;;;;14.43;8.73;;;2.40;99.90;;;;;;5134375;27;20058;-66
2021/12/09 08:22:37;;;;;;;19.98;10.23;;;2.40;99.90;;;;;;5123396;27;20131;-66
2021/12/09 08:25:06;;;;;;;22.73;9.80;;;2.50;99.90;;;;;;5114823;27;20047;-66
2021/12/09 08:27:33;;;;;;;15.43;9.00;;;2.50;99.90;;;;;;5114665;27;20057;-66
2021/12/09 08:30:01;;;;;;;25.58;9.25;;;2.50;99.90;;;;;;5132248;27;20047;-67
2021/12/09 08:32:27;;;;;;;19.65;8.40;;;2.50;99.90;;;;;;5124983;27;20097;-66
2021/12/09 08:34:53;;;;;;;16.35;8.05;;;2.50;99.90;;;;;;5152763;27;20074;-66
2021/12/09 08:37:20;;;;;;;22.02;10.82;;;2.50;99.90;;;;;;5147937;27;20482;-66
2021/12/09 08:39:46;;;;;;;30.38;11.23;;;2.50;99.90;;;;;;5148434;27;20046;-66
2021/12/09 08:42:13;;;;;;;22.48;9.50;;;2.50;99.90;;;;;;5127474;27;20047;-66
2021/12/09 08:44:39;;;;;;;21.75;9.18;;;2.60;99.90;;;;;;5132081;27;20050;-66
2021/12/09 08:47:05;;;;;;;22.08;9.05;;;2.60;99.90;;;;;;5113678;27;20059;-66
2021/12/09 08:49:30;;;;;;;19.67;8.93;;;2.60;99.90;;;;;;5130677;27;20123;-66
2021/12/09 08:51:56;;;;;;;24.80;8.25;;;2.70;99.90;;;;;;5112074;27;20045;-66
2021/12/09 08:54:22;;;;;;;20.08;9.15;;;2.70;99.90;;;;;;5137575;27;20123;-66
2021/12/09 08:56:51;;;;;;;33.47;9.18;;;2.70;99.90;;;;;;5130469;27;20043;-66
2021/12/09 08:59:18;;;;;;;21.52;10.25;;;2.70;99.90;;;;;;5152472;27;20042;-66
2021/12/09 09:01:44;;;;;;;18.70;8.88;;;2.80;99.90;;;;;;5147062;27;20659;-66
2021/12/09 09:04:09;;;;;;;17.10;8.30;;;2.80;99.90;;;;;;5113561;27;20150;-66
2021/12/09 09:06:36;;;;;;;19.02;8.95;;;2.80;99.90;;;;;;5129919;27;20050;-66
2021/12/09 09:09:04;;;;;;;22.67;8.80;;;2.90;99.90;;;;;;5130183;27;20115;-66
2021/12/09 09:11:30;;;;;;;17.48;8.93;;;3.00;99.90;;;;;;5132171;27;20124;-66
2021/12/09 09:13:57;;;;;;;23.10;9.73;;;3.00;99.90;;;;;;5131436;27;20134;-66
2021/12/09 09:16:23;;;;;;;20.45;8.85;;;3.10;99.90;;;;;;5142593;27;20125;-66
2021/12/09 09:18:53;;;;;;;30.48;8.52;;;3.10;99.90;;;;;;5149657;27;20133;-66
2021/12/09 09:21:19;;;;;;;18.13;8.88;;;3.20;99.90;;;;;;5130962;27;20050;-66
2021/12/09 09:23:44;;;;;;;20.65;8.65;;;3.20;99.90;;;;;;5131840;27;20387;-66
2021/12/09 09:26:10;;;;;;;18.08;9.07;;;3.30;99.90;;;;;;5138388;27;20043;-66
2021/12/09 09:28:36;;;;;;;28.05;10.05;;;3.40;99.90;;;;;;5138733;27;20043;-66
2021/12/09 09:31:04;;;;;;;19.10;8.73;;;3.40;99.90;;;;;;5112545;27;20055;-66
2021/12/09 09:33:30;;;;;;;16.48;7.45;;;3.50;99.90;;;;;;5131324;27;20055;-66
2021/12/09 09:35:56;;;;;;;21.23;8.02;;;3.50;99.90;;;;;;5122221;27;20099;-66
2021/12/09 09:38:23;;;;;;;26.13;8.57;;;3.50;99.90;;;;;;5110507;27;20505;-67
2021/12/09 09:41:03;;;;;;;18.02;7.25;;;3.50;99.90;;;;;;5111889;27;20047;-66
2021/12/09 09:46:11;;;;;;;23.45;8.07;;;3.60;99.90;;;;;;5130867;27;20051;-67
2021/12/09 09:48:38;;;;;;;15.77;8.05;;;3.60;99.90;;;;;;5122037;27;20047;-66
2021/12/09 09:51:06;;;;;;;14.60;7.20;;;3.60;99.90;;;;;;5112264;27;20058;-66
2021/12/09 09:53:33;;;;;;;20.27;8.45;;;3.60;99.90;;;;;;5130527;27;20047;-66
2021/12/09 09:55:58;;;;;;;18.38;8.70;;;3.60;99.90;;;;;;5110281;27;20058;-66
2021/12/09 09:58:25;;;;;;;14.63;6.60;;;3.60;99.90;;;;;;5131097;27;20035;-66
2021/12/09 10:00:51;;;;;;;18.00;7.38;;;3.70;99.90;;;;;;5109663;27;20047;-66
2021/12/09 10:03:18;;;;;;;19.50;8.52;;;3.70;99.90;;;;;;5133860;27;20062;-66
2021/12/09 10:05:48;;;;;;;18.45;7.35;;;3.70;99.90;;;;;;5120893;27;20042;-66
2021/12/09 10:08:16;;;;;;;21.00;8.18;;;3.70;99.90;;;;;;5143452;27;20039;-66
2021/12/09 10:10:43;;;;;;;23.23;8.77;;;3.70;99.90;;;;;;5120846;27;20075;-66
2021/12/09 10:13:13;;;;;;;21.85;8.60;;;3.80;99.90;;;;;;5106658;27;20046;-66
2021/12/09 10:15:50;;;;;;;17.38;9.10;;;3.80;99.90;;;;;;5126172;27;20043;-66
2021/12/09 10:18:38;;;;;;;18.00;7.95;;;3.80;99.90;;;;;;5146320;27;20053;-66
2021/12/09 10:21:08;;;;;;;21.73;8.38;;;3.80;99.90;;;;;;5115827;27;20043;-66
2021/12/09 10:23:38;;;;;;;26.17;8.25;;;3.80;99.90;;;;;;5129421;27;20057;-66
2021/12/09 10:26:29;;;;;;;21.63;8.20;;;3.80;99.90;;;;;;5130385;27;20043;-66
2021/12/09 10:29:04;;;;;;;16.60;7.75;;;3.90;99.90;;;;;;5127343;27;20051;-66
2021/12/09 10:31:40;;;;;;;26.73;10.02;;;3.90;99.90;;;;;;5140362;27;20436;-66
2021/12/09 10:34:37;;;;;;;25.90;9.40;;;3.90;99.90;;;;;;5125018;27;20549;-66
2021/12/09 10:37:14;;;;;;;25.60;9.68;;;3.90;99.90;;;;;;5105722;27;20138;-66
2021/12/09 10:40:00;;;;;;;20.25;10.50;;;3.90;99.90;;;;;;5132416;27;21033;-66
2021/12/09 10:42:31;;;;;;;26.27;12.52;;;3.90;99.90;;;;;;5151098;27;20069;-66
2021/12/09 10:45:04;;;;;;;24.05;11.45;;;3.90;99.90;;;;;;5150196;27;20068;-66
2021/12/09 10:47:49;;;;;;;24.70;10.82;;;3.90;99.90;;;;;;5120325;27;20485;-66
2021/12/09 10:53:01;;;;;;;37.00;15.75;;;4.00;99.90;;;;;;5110336;27;20076;-66
2021/12/09 10:55:36;;;;;;;33.37;12.10;;;4.00;99.90;;;;;;5126303;27;20119;-66
2021/12/09 10:58:11;;;;;;;22.63;12.15;;;4.00;99.90;;;;;;5150546;27;20067;-66
2021/12/09 11:00:43;;;;;;;24.85;13.70;;;4.10;99.90;;;;;;5149499;27;20107;-66
2021/12/09 11:03:29;;;;;;;30.10;12.48;;;4.00;99.90;;;;;;5150388;27;20035;-66
2021/12/09 11:05:59;;;;;;;28.70;13.90;;;4.20;99.90;;;;;;5140684;27;20057;-66
2021/12/09 11:08:56;;;;;;;27.85;14.02;;;4.10;99.90;;;;;;5132011;27;20121;-66
2021/12/09 11:11:33;;;;;;;38.47;16.27;;;4.20;99.90;;;;;;5097614;27;20050;-66
2021/12/09 11:14:07;;;;;;;27.90;15.77;;;4.30;99.90;;;;;;5136514;27;20047;-66
2021/12/09 11:16:36;;;;;;;41.42;18.33;;;4.30;99.90;;;;;;5135347;27;20071;-66
2021/12/09 11:19:15;;;;;;;31.50;17.98;;;4.30;99.90;;;;;;5122000;27;20063;-66
2021/12/09 11:21:46;;;;;;;32.88;16.83;;;4.30;99.90;;;;;;5149046;27;20534;-65
2021/12/09 11:24:14;;;;;;;38.45;17.00;;;4.30;99.90;;;;;;5131256;27;20051;-66
2021/12/09 11:27:02;;;;;;;34.72;16.67;;;4.30;99.90;;;;;;5127160;27;20383;-66
2021/12/09 11:29:38;;;;;;;30.38;16.48;;;4.40;99.90;;;;;;5129150;27;20066;-66
2021/12/09 11:32:09;;;;;;;35.78;16.42;;;4.40;99.90;;;;;;5129722;28;20118;-66
2021/12/09 11:35:02;;;;;;;35.35;17.45;;;4.40;99.90;;;;;;5128855;27;20075;-65
2021/12/09 11:40:05;;;;;;;37.53;18.45;;;4.40;99.90;;;;;;5128865;28;20053;-66
2021/12/09 11:42:43;;;;;;;29.02;16.35;;;4.40;99.90;;;;;;5140292;27;20398;-66
2021/12/09 11:45:11;;;;;;;29.15;15.52;;;4.40;99.90;;;;;;5143644;27;20055;-66
2021/12/09 11:47:42;;;;;;;30.70;16.60;;;4.40;99.90;;;;;;5128908;28;20182;-66
2021/12/09 11:50:12;;;;;;;33.40;16.40;;;4.50;99.90;;;;;;5122523;27;20114;-65
2021/12/09 11:52:38;;;;;;;34.30;17.73;;;4.40;99.90;;;;;;5128845;27;20445;-66
2021/12/09 11:55:07;;;;;;;33.30;17.13;;;4.40;99.90;;;;;;5128390;28;20517;-66
2021/12/09 12:07:33;;;;;;;27.40;16.30;;;4.40;99.90;;;;;;5140431;27;20073;-66
2021/12/09 12:12:44;;;;;;;27.90;15.85;;;4.50;99.90;;;;;;5128453;27;20039;-65
2021/12/09 12:15:22;;;;;;;41.75;18.15;;;4.50;99.90;;;;;;5128870;27;20409;-65
2021/12/09 12:18:48;;;;;;;33.05;18.77;;;4.50;99.90;;;;;;5119113;27;20635;-66
2021/12/09 12:26:49;;;;;;;34.83;16.30;;;4.60;99.90;;;;;;5108594;27;20091;-65
2021/12/09 12:38:01;;;;;;;43.00;19.27;;;4.60;99.90;;;;;;5086501;28;20535;-66
2021/12/09 12:41:12;;;;;;;37.38;18.88;;;4.60;99.90;;;;;;5089627;28;20466;-65
2021/12/09 12:43:52;;;;;;;35.35;18.25;;;4.60;99.90;;;;;;5071302;28;20059;-66
2021/12/09 12:47:13;;;;;;;35.83;18.25;;;4.60;99.90;;;;;;5089780;28;20047;-66
2021/12/09 12:49:46;;;;;;;29.23;16.35;;;4.70;99.90;;;;;;5070425;28;20055;-66
2021/12/09 12:52:27;;;;;;;33.13;19.00;;;4.70;99.90;;;;;;5094053;28;20055;-66
2021/12/09 12:55:11;;;;;;;37.38;19.35;;;4.70;99.90;;;;;;5096887;28;20059;-66
2021/12/09 12:57:43;;;;;;;39.22;18.13;;;4.80;99.90;;;;;;5087159;28;20044;-66
2021/12/09 13:00:12;;;;;;;41.17;18.90;;;4.80;99.90;;;;;;5110935;28;20039;-66
2021/12/09 13:05:47;;;;;;;38.38;19.60;;;4.80;99.90;;;;;;5104877;28;20043;-66
2021/12/09 13:11:15;;;;;;;36.42;18.17;;;4.80;99.90;;;;;;5090103;28;20392;-68
2021/12/09 13:13:48;;;;;;;31.13;17.52;;;4.90;99.90;;;;;;5083177;28;20158;-66
2021/12/09 13:19:16;;;;;;;35.72;19.23;;;4.80;99.90;;;;;;5102077;28;20574;-65
2021/12/09 13:21:52;;;;;;;32.65;18.13;;;4.80;99.90;;;;;;5087464;28;20514;-66
2021/12/09 13:24:22;;;;;;;31.05;17.58;;;4.80;99.90;;;;;;5107490;28;20554;-66
2021/12/09 13:27:12;;;;;;;35.25;19.77;;;4.80;99.90;;;;;;5086459;28;20086;-66
2021/12/09 13:35:20;;;;;;;34.83;18.55;;;4.90;99.90;;;;;;5130409;27;20517;-65
2021/12/09 13:49:10;;;;;;;36.75;16.48;;;5.00;99.90;;;;;;5129505;27;20051;-65
2021/12/09 13:56:48;;;;;;;43.08;18.15;;;5.00;99.90;;;;;;5121466;27;20126;-66
2021/12/09 13:59:18;;;;;;;45.47;21.55;;;5.00;99.90;;;;;;5128702;27;20427;-66
2021/12/09 14:01:45;;;;;;;38.00;17.90;;;5.00;99.90;;;;;;5127232;27;20042;-66
2021/12/09 14:04:13;;;;;;;44.40;19.80;;;5.00;99.90;;;;;;5130841;27;20478;-66